Time;durP1;ratioP1;P1;durP2;ratioP2;P2;SDS_P1;SDS_P2;PMS_P1;PMS_P2;Temp;Humidity;BMP_temperature;BMP_pressure;BME280_temperature;BME280_humidity;BME280_pressure;Samples;Min_cycle;Max_cycle;Signal;HPM_P1;HPM_P2
2022/04/28 00:00:40;;;;;;;17.40;10.40;;;;;;;8.36;73.66;101904.34;5013070;28;20067;-71
2022/04/28 00:03:09;;;;;;;16.25;10.15;;;;;;;8.34;73.82;101908.81;5025829;28;20045;-71
2022/04/28 00:05:37;;;;;;;16.05;10.43;;;;;;;8.32;74.95;101913.22;5023647;28;20061;-70
2022/04/28 00:08:05;;;;;;;25.85;11.40;;;;;;;8.31;74.53;101907.13;5031884;28;20037;-70
2022/04/28 00:10:33;;;;;;;16.15;10.85;;;;;;;8.34;74.50;101909.66;5010462;28;20064;-70
2022/04/28 00:13:00;;;;;;;24.23;10.73;;;;;;;8.35;74.33;101907.91;5042734;28;20056;-70
2022/04/28 00:15:29;;;;;;;18.45;10.38;;;;;;;8.43;73.77;101910.34;5042452;28;20411;-71
2022/04/28 00:17:56;;;;;;;22.83;11.63;;;;;;;8.46;74.01;101908.47;5030603;28;20045;-70
2022/04/28 00:20:24;;;;;;;21.83;12.77;;;;;;;8.51;73.68;101910.94;5020083;28;20415;-71
2022/04/28 00:22:51;;;;;;;23.95;12.38;;;;;;;8.56;73.82;101903.81;5006300;28;20064;-70
2022/04/28 00:25:20;;;;;;;26.48;12.07;;;;;;;8.57;73.56;101908.16;5015168;28;20041;-71
2022/04/28 00:27:48;;;;;;;24.33;11.85;;;;;;;8.55;74.04;101900.31;5005569;28;20060;-71
2022/04/28 00:30:15;;;;;;;22.38;11.32;;;;;;;8.51;74.74;101914.47;5018521;28;20050;-70
2022/04/28 00:32:42;;;;;;;24.38;12.80;;;;;;;8.46;75.57;101905.84;5048436;28;20063;-69
2022/04/28 00:35:10;;;;;;;24.35;12.05;;;;;;;8.45;74.72;101913.75;5008587;28;20049;-69
2022/04/28 00:37:37;;;;;;;21.25;12.20;;;;;;;8.42;75.03;101913.84;5023820;28;20146;-69
2022/04/28 00:40:05;;;;;;;24.33;12.35;;;;;;;8.40;75.56;101903.41;5023188;28;20068;-69
2022/04/28 00:42:32;;;;;;;20.35;11.73;;;;;;;8.38;75.69;101901.75;5026302;28;20040;-69
2022/04/28 00:45:00;;;;;;;23.02;12.20;;;;;;;8.34;75.80;101903.56;5043606;28;20056;-69
2022/04/28 00:50:38;;;;;;;18.08;12.98;;;;;;;8.32;76.33;101908.81;5024299;28;20045;-68
2022/04/28 00:53:01;;;;;;;20.55;13.13;;;;;;;8.32;76.08;101915.84;5031679;28;20398;-70
2022/04/28 00:55:29;;;;;;;22.85;13.30;;;;;;;8.31;76.69;101917.63;5026584;28;20057;-71
2022/04/28 00:57:56;;;;;;;22.27;12.02;;;;;;;8.29;76.92;101919.44;5006394;28;20045;-71
2022/04/28 01:00:23;;;;;;;18.77;12.27;;;;;;;8.26;77.25;101916.88;5031470;28;20053;-71
2022/04/28 01:02:50;;;;;;;20.40;11.93;;;;;;;8.24;77.48;101913.47;5019495;28;20041;-71
2022/04/28 01:05:18;;;;;;;18.15;11.23;;;;;;;8.21;77.28;101921.41;5011203;28;20047;-70
2022/04/28 01:07:45;;;;;;;17.35;11.40;;;;;;;8.17;77.17;101925.03;5035905;28;20052;-68
2022/04/28 01:10:14;;;;;;;19.20;11.32;;;;;;;8.09;77.88;101919.97;5026732;28;20057;-68
2022/04/28 01:12:41;;;;;;;19.23;11.32;;;;;;;8.02;78.08;101926.31;5034849;28;20062;-68
2022/04/28 01:15:09;;;;;;;17.90;10.65;;;;;;;8.01;77.43;101924.56;5003842;28;20533;-69
2022/04/28 01:17:36;;;;;;;22.48;10.95;;;;;;;7.96;77.77;101926.47;5000230;28;20551;-69
2022/04/28 01:20:03;;;;;;;26.33;11.35;;;;;;;7.93;78.05;101928.34;5022872;28;20506;-69
2022/04/28 01:22:31;;;;;;;19.85;11.77;;;;;;;7.89;78.19;101927.56;5022236;28;20533;-69
2022/04/28 01:25:07;;;;;;;15.75;10.88;;;;;;;7.87;78.77;101929.34;5008693;28;20077;-69
2022/04/28 01:27:35;;;;;;;17.13;10.73;;;;;;;7.83;78.63;101928.59;5006436;28;20070;-70
2022/04/28 01:30:04;;;;;;;15.70;9.88;;;;;;;7.78;78.68;101926.97;5012733;28;20037;-70
2022/04/28 01:32:31;;;;;;;14.80;10.70;;;;;;;7.77;78.37;101927.88;5021861;28;20589;-70
2022/04/28 01:34:58;;;;;;;17.02;10.80;;;;;;;7.73;78.43;101934.09;5009525;28;22186;-70
2022/04/28 01:37:26;;;;;;;14.90;10.38;;;;;;;7.69;78.59;101929.81;5047931;28;20056;-70
2022/04/28 01:39:55;;;;;;;16.98;11.23;;;;;;;7.69;78.56;101935.91;5020969;28;20064;-70
2022/04/28 01:42:23;;;;;;;13.57;9.93;;;;;;;7.65;78.59;101934.28;5006519;28;20045;-70
2022/04/28 01:44:50;;;;;;;16.95;9.82;;;;;;;7.64;78.96;101945.66;5024741;28;20064;-70
2022/04/28 01:47:17;;;;;;;16.05;9.80;;;;;;;7.63;78.69;101940.47;5014986;28;20037;-70
2022/04/28 01:49:44;;;;;;;16.65;10.43;;;;;;;7.65;78.20;101936.03;5006631;28;20052;-70
2022/04/28 01:54:58;;;;;;;16.02;9.70;;;;;;;7.63;78.85;101932.63;5024540;28;20084;-70
2022/04/28 01:57:27;;;;;;;14.55;10.02;;;;;;;7.60;79.57;101923.91;5010553;28;20044;-70
2022/04/28 02:00:00;;;;;;;20.55;12.35;;;;;;;7.60;79.47;101934.41;5027240;28;20055;-69
2022/04/28 02:02:28;;;;;;;16.40;10.45;;;;;;;7.62;79.09;101939.63;5021432;28;20475;-71
2022/04/28 02:04:59;;;;;;;16.23;11.00;;;;;;;7.63;79.67;101940.47;4998596;28;20041;-71
2022/04/28 02:07:27;;;;;;;15.00;10.50;;;;;;;7.63;79.63;101940.47;5022624;28;20067;-70
2022/04/28 02:09:55;;;;;;;15.30;10.25;;;;;;;7.63;79.74;101938.72;5004030;28;21759;-70
2022/04/28 02:12:23;;;;;;;18.75;10.55;;;;;;;7.66;79.09;101933.41;5030908;28;20166;-70
2022/04/28 02:14:50;;;;;;;17.20;11.50;;;;;;;7.67;79.45;101934.25;5038524;28;20060;-70
2022/04/28 02:17:18;;;;;;;17.98;11.10;;;;;;;7.61;79.66;101933.53;5017273;28;20052;-70
2022/04/28 02:19:46;;;;;;;19.73;9.85;;;;;;;7.56;80.56;101930.13;5008540;28;20137;-69
2022/04/28 02:22:13;;;;;;;18.08;10.65;;;;;;;7.53;79.93;101932.84;5039222;28;20060;-68
2022/04/28 02:24:40;;;;;;;15.60;10.60;;;;;;;7.51;80.08;101931.16;5028526;28;20084;-69
2022/04/28 02:27:08;;;;;;;16.83;10.48;;;;;;;7.44;80.38;101934.84;5024858;28;20057;-69
2022/04/28 02:29:36;;;;;;;15.20;9.32;;;;;;;7.36;80.51;101919.31;5024630;28;20160;-69
2022/04/28 02:32:03;;;;;;;21.48;9.75;;;;;;;7.38;79.97;101927.97;4995824;28;20064;-69
2022/04/28 02:34:31;;;;;;;15.20;9.60;;;;;;;7.36;79.80;101929.78;5009817;28;20136;-69
2022/04/28 02:36:59;;;;;;;13.80;8.57;;;;;;;7.31;79.88;101923.81;5009959;28;20049;-68
2022/04/28 02:39:26;;;;;;;12.13;9.57;;;;;;;7.27;79.91;101930.88;5021432;28;20477;-69
2022/04/28 02:41:53;;;;;;;13.98;9.02;;;;;;;7.20;79.71;101928.44;5019036;28;20045;-69
2022/04/28 02:44:21;;;;;;;16.50;9.75;;;;;;;7.17;79.71;101929.38;5026028;28;20048;-68
2022/04/28 02:46:48;;;;;;;11.30;8.27;;;;;;;7.12;79.97;101928.63;5033367;28;20052;-68
2022/04/28 02:49:16;;;;;;;15.00;8.95;;;;;;;7.13;80.59;101932.97;5009728;28;20045;-68
2022/04/28 02:51:43;;;;;;;14.15;8.77;;;;;;;7.10;80.04;101933.88;5017225;28;20054;-68
2022/04/28 02:54:11;;;;;;;12.07;8.18;;;;;;;7.07;80.57;101933.97;5010878;28;20041;-68
2022/04/28 02:56:38;;;;;;;17.13;9.20;;;;;;;7.00;80.75;101932.38;5003951;28;20053;-68
2022/04/28 02:59:05;;;;;;;14.10;9.45;;;;;;;6.99;80.56;101937.66;5004091;28;20041;-69
2022/04/28 03:01:32;;;;;;;14.02;9.38;;;;;;;6.98;80.76;101934.19;5025399;28;20711;-69
2022/04/28 03:04:00;;;;;;;12.60;8.63;;;;;;;6.95;80.53;101934.25;5005855;28;20144;-69
2022/04/28 03:11:59;;;;;;;14.18;8.60;;;;;;;6.90;79.80;101941.34;5020393;28;20442;-69
2022/04/28 03:18:40;;;;;;;13.02;8.77;;;;;;;6.80;79.68;101940.69;5037652;28;20052;-70
2022/04/28 03:21:08;;;;;;;10.93;7.75;;;;;;;6.78;79.73;101946.84;5000849;28;20051;-70
2022/04/28 03:23:35;;;;;;;12.57;8.77;;;;;;;6.77;79.41;101939.91;5023024;28;20059;-70
2022/04/28 03:26:03;;;;;;;13.90;8.38;;;;;;;6.77;78.90;101946.00;5045636;28;20076;-70
2022/04/28 03:28:35;;;;;;;11.80;8.88;;;;;;;6.76;79.13;101946.91;5033024;28;20059;-70
2022/04/28 03:31:03;;;;;;;10.90;8.10;;;;;;;6.71;79.61;101947.88;5021719;28;20075;-71
2022/04/28 03:33:31;;;;;;;14.48;8.75;;;;;;;6.64;80.14;101947.16;5045805;28;20052;-69
2022/04/28 03:35:58;;;;;;;18.73;8.68;;;;;;;6.62;79.86;101950.69;5047448;28;20472;-70
2022/04/28 03:38:26;;;;;;;14.15;8.85;;;;;;;6.59;79.54;101943.78;5046674;28;20103;-69
2022/04/28 03:45:11;;;;;;;14.55;8.88;;;;;;;6.58;79.63;101953.38;5044861;28;20414;-70
2022/04/28 03:47:39;;;;;;;17.25;8.93;;;;;;;6.56;79.99;101949.91;5029563;28;20056;-69
2022/04/28 03:50:07;;;;;;;14.15;8.50;;;;;;;6.55;79.75;101953.44;5026409;28;20105;-70
2022/04/28 03:52:34;;;;;;;13.02;9.05;;;;;;;6.57;80.09;101953.41;5050659;28;20064;-70
2022/04/28 03:55:02;;;;;;;16.77;8.38;;;;;;;6.58;80.03;101965.63;5042477;28;20262;-70
2022/04/28 03:57:29;;;;;;;13.25;8.73;;;;;;;6.57;80.07;101967.38;5036616;28;20061;-70
2022/04/28 03:59:57;;;;;;;18.42;9.52;;;;;;;6.55;80.15;101969.13;5024823;28;20045;-71
2022/04/28 04:02:24;;;;;;;14.43;8.52;;;;;;;6.57;79.80;101971.72;5041529;28;20505;-69
2022/04/28 04:04:51;;;;;;;16.55;8.65;;;;;;;6.56;79.94;101977.84;5026883;28;20067;-68
2022/04/28 04:07:19;;;;;;;12.27;9.25;;;;;;;6.59;80.04;101980.41;4994443;28;20057;-69
2022/04/28 04:09:46;;;;;;;12.40;8.43;;;;;;;6.60;79.86;101972.53;5019239;28;20097;-69
2022/04/28 04:12:19;;;;;;;11.13;8.48;;;;;;;6.62;80.01;101974.22;5023113;28;20049;-69
2022/04/28 04:14:46;;;;;;;15.82;9.40;;;;;;;6.60;80.58;101975.13;5022593;28;20068;-69
2022/04/28 04:17:14;;;;;;;13.02;8.32;;;;;;;6.66;80.93;101978.50;5045986;28;20395;-69
2022/04/28 04:19:41;;;;;;;14.57;8.35;;;;;;;6.70;80.64;101983.66;5038635;28;20049;-71
2022/04/28 04:22:09;;;;;;;12.88;8.80;;;;;;;6.75;80.32;101976.56;5021771;28;20060;-72
2022/04/28 04:24:36;;;;;;;17.73;8.82;;;;;;;6.76;80.73;101980.91;5024321;28;20064;-70
2022/04/28 04:27:05;;;;;;;13.00;9.15;;;;;;;6.80;80.65;101982.59;5043591;28;20068;-69
2022/04/28 04:29:33;;;;;;;13.30;8.80;;;;;;;6.83;80.98;101986.88;5010857;28;20086;-70
2022/04/28 04:32:18;;;;;;;15.32;9.68;;;;;;;6.86;80.15;101989.44;5025940;28;20054;-71
2022/04/28 04:34:45;;;;;;;13.13;8.60;;;;;;;6.93;79.80;101990.16;5027010;28;20135;-70
2022/04/28 04:37:14;;;;;;;13.30;8.95;;;;;;;6.97;79.40;101992.66;5024960;28;20475;-70
2022/04/28 04:39:41;;;;;;;17.27;9.43;;;;;;;6.99;79.74;101997.88;5023823;28;20076;-71
2022/04/28 04:42:08;;;;;;;18.25;8.77;;;;;;;7.06;79.29;101987.22;5038912;28;20060;-71
2022/04/28 04:44:36;;;;;;;12.65;8.05;;;;;;;7.11;78.53;101992.34;5029243;28;20045;-70
2022/04/28 04:47:03;;;;;;;12.88;8.68;;;;;;;7.12;78.73;101998.47;5015400;28;20075;-71
2022/04/28 04:49:31;;;;;;;14.77;8.52;;;;;;;7.20;77.98;101996.53;5007503;28;20048;-70
2022/04/28 04:51:58;;;;;;;14.48;9.02;;;;;;;7.26;78.13;101999.88;5027853;28;20049;-71
2022/04/28 04:54:25;;;;;;;11.65;8.90;;;;;;;7.33;77.29;102008.44;5024381;28;20068;-72
2022/04/28 04:56:52;;;;;;;14.23;9.07;;;;;;;7.44;76.10;102005.59;5041235;28;20049;-71
2022/04/28 04:59:19;;;;;;;15.25;8.07;;;;;;;7.47;75.83;102010.72;5020073;28;20046;-71
2022/04/28 05:01:47;;;;;;;17.17;9.05;;;;;;;7.51;75.71;102013.25;5044556;28;20405;-71
2022/04/28 05:04:15;;;;;;;15.60;8.80;;;;;;;7.60;75.42;102012.16;5046849;28;20053;-71
2022/04/28 05:06:42;;;;;;;17.15;9.95;;;;;;;7.70;74.68;102012.78;5010399;28;20075;-71
2022/04/28 05:09:09;;;;;;;11.32;8.35;;;;;;;7.78;74.40;102016.94;5022363;28;20049;-70
2022/04/28 05:11:36;;;;;;;12.88;8.40;;;;;;;7.87;73.60;102019.34;5019592;28;20533;-72
2022/04/28 05:14:04;;;;;;;14.02;9.27;;;;;;;7.93;73.51;102018.34;5039051;28;20053;-71
2022/04/28 05:16:31;;;;;;;12.25;7.95;;;;;;;7.99;72.27;102012.94;5008816;28;20045;-74
2022/04/28 05:18:58;;;;;;;17.30;9.13;;;;;;;8.03;72.05;102021.59;5028082;28;20715;-71
2022/04/28 05:21:26;;;;;;;15.55;8.57;;;;;;;8.12;71.87;102027.44;5005804;28;20059;-71
2022/04/28 05:23:53;;;;;;;16.38;8.05;;;;;;;8.21;70.77;102025.50;5012211;28;20045;-73
2022/04/28 05:26:24;;;;;;;16.85;8.68;;;;;;;8.35;70.61;102026.81;5024635;28;20141;-74
2022/04/28 05:28:52;;;;;;;16.17;8.40;;;;;;;8.51;69.67;102029.03;5015960;28;20096;-72
2022/04/28 05:31:19;;;;;;;16.45;8.90;;;;;;;8.65;69.71;102032.16;5041135;28;20522;-72
2022/04/28 05:33:46;;;;;;;17.45;8.68;;;;;;;8.88;68.88;102035.00;5026960;28;20833;-72
2022/04/28 05:36:14;;;;;;;15.30;8.80;;;;;;;8.97;67.60;102030.38;5015494;28;20518;-72
2022/04/28 05:38:41;;;;;;;11.27;8.00;;;;;;;9.08;67.73;102034.38;5011150;28;20423;-72
2022/04/28 05:41:09;;;;;;;14.77;8.23;;;;;;;9.19;67.23;102031.44;5042344;28;20049;-72
2022/04/28 05:46:23;;;;;;;17.10;8.55;;;;;;;9.50;65.91;102044.50;5024215;28;20037;-72
2022/04/28 05:48:51;;;;;;;14.93;8.63;;;;;;;9.61;65.88;102039.75;5045560;28;20439;-73
2022/04/28 05:51:18;;;;;;;17.38;8.73;;;;;;;9.64;64.92;102042.28;5010331;28;20037;-72
2022/04/28 05:53:45;;;;;;;17.05;8.82;;;;;;;9.76;64.20;102040.16;5027129;28;20119;-72
2022/04/28 05:56:12;;;;;;;21.02;8.48;;;;;;;9.85;63.75;102040.69;5025418;28;20145;-72
2022/04/28 05:58:39;;;;;;;18.38;9.05;;;;;;;9.90;62.22;102045.81;4983470;28;20057;-73
2022/04/28 06:01:07;;;;;;;13.70;8.23;;;;;;;10.04;61.49;102047.97;5000243;28;20049;-72
2022/04/28 06:03:34;;;;;;;18.85;7.95;;;;;;;10.15;62.00;102059.00;4991041;28;20590;-70
2022/04/28 06:06:02;;;;;;;16.92;7.90;;;;;;;10.29;62.15;102054.16;5032408;28;20413;-70
2022/04/28 06:08:29;;;;;;;16.42;7.53;;;;;;;10.35;60.54;102055.69;5038806;28;20052;-71
2022/04/28 06:10:57;;;;;;;14.93;7.50;;;;;;;10.56;60.03;102054.09;5041164;28;20132;-71
2022/04/28 06:13:24;;;;;;;13.32;7.40;;;;;;;10.63;60.26;102060.88;5026803;28;20047;-71
2022/04/28 06:15:51;;;;;;;22.40;6.82;;;;;;;10.68;60.30;102069.47;5046186;28;20076;-71
2022/04/28 06:18:19;;;;;;;12.63;7.90;;;;;;;10.70;59.70;102074.66;5016772;28;20061;-71
2022/04/28 06:20:48;;;;;;;16.05;7.28;;;;;;;10.70;60.01;102072.88;4993010;28;20067;-71
2022/04/28 06:23:15;;;;;;;15.00;8.23;;;;;;;10.78;59.80;102075.25;5015397;28;20067;-71
2022/04/28 06:25:42;;;;;;;22.15;7.63;;;;;;;10.84;59.14;102069.75;5011836;28;20124;-71
2022/04/28 06:28:11;;;;;;;20.45;8.10;;;;;;;10.93;59.52;102074.66;5015716;28;20455;-71
2022/04/28 06:30:38;;;;;;;15.57;8.48;;;;;;;10.94;59.71;102072.88;5013737;28;20064;-71
2022/04/28 06:33:08;;;;;;;18.65;8.07;;;;;;;11.06;58.99;102073.28;5031878;28;20072;-72
2022/04/28 06:35:35;;;;;;;19.58;8.20;;;;;;;11.12;59.11;102077.47;5027758;28;20110;-72
2022/04/28 06:38:02;;;;;;;16.40;8.88;;;;;;;11.18;59.05;102069.34;5032300;28;20056;-71
2022/04/28 06:40:30;;;;;;;14.38;8.15;;;;;;;11.33;59.20;102075.78;5010756;28;20072;-72
2022/04/28 06:42:57;;;;;;;17.77;9.18;;;;;;;11.47;58.71;102077.88;5013907;28;20053;-71
2022/04/28 06:45:24;;;;;;;19.95;9.60;;;;;;;11.52;59.32;102079.41;5028458;28;20045;-72
2022/04/28 06:47:51;;;;;;;16.83;8.90;;;;;;;11.70;59.40;102071.69;5030828;28;20068;-71
2022/04/28 06:50:18;;;;;;;16.30;8.45;;;;;;;11.72;59.10;102073.34;5000677;28;20443;-71
2022/04/28 06:52:46;;;;;;;16.65;9.32;;;;;;;11.78;59.37;102074.88;5030603;28;20049;-72
2022/04/28 06:55:13;;;;;;;19.13;9.98;;;;;;;11.99;59.07;102078.47;5012933;28;20063;-71
2022/04/28 06:57:40;;;;;;;16.05;8.68;;;;;;;11.99;57.92;102079.31;4995050;28;20423;-71
2022/04/28 07:00:08;;;;;;;14.48;8.90;;;;;;;12.10;57.72;102079.69;5013197;28;20692;-72
2022/04/28 07:02:35;;;;;;;25.45;8.95;;;;;;;12.10;56.74;102081.50;5012683;28;20076;-72
2022/04/28 07:05:03;;;;;;;22.25;9.43;;;;;;;12.28;57.01;102072.78;5029873;28;20075;-72
2022/04/28 07:07:30;;;;;;;15.68;9.35;;;;;;;12.50;56.24;102077.16;5044309;28;20159;-72
2022/04/28 07:09:58;;;;;;;19.83;8.02;;;;;;;12.97;55.93;102082.97;5010398;28;20125;-72
2022/04/28 07:12:33;;;;;;;20.02;8.77;;;;;;;13.24;54.42;102080.84;5012673;28;20047;-72
2022/04/28 07:15:01;;;;;;;12.43;7.80;;;;;;;13.39;54.00;102079.28;5030047;28;20415;-72
2022/04/28 07:17:28;;;;;;;15.43;7.90;;;;;;;13.55;53.91;102068.78;5030815;28;20049;-72
2022/04/28 07:19:55;;;;;;;15.30;7.60;;;;;;;13.56;53.15;102079.31;5027965;28;20188;-72
2022/04/28 07:22:22;;;;;;;14.60;7.18;;;;;;;13.57;52.73;102073.09;5012404;28;20044;-72
2022/04/28 07:24:49;;;;;;;19.05;6.88;;;;;;;13.68;52.21;102080.50;5031695;28;20049;-73
2022/04/28 07:27:17;;;;;;;13.30;5.95;;;;;;;13.56;51.44;102081.97;5048516;28;20132;-72
2022/04/28 07:29:44;;;;;;;11.38;5.55;;;;;;;13.72;51.54;102076.78;5030493;28;20503;-72
2022/04/28 07:32:11;;;;;;;29.00;6.30;;;;;;;13.82;50.25;102087.75;5014595;28;20157;-72
2022/04/28 07:34:38;;;;;;;19.38;6.53;;;;;;;13.85;50.44;102087.63;5014375;28;20649;-70
2022/04/28 07:37:06;;;;;;;15.75;5.18;;;;;;;13.96;51.50;102090.63;5012773;28;20053;-70
2022/04/28 07:39:33;;;;;;;16.38;5.80;;;;;;;14.23;49.49;102095.44;5027583;28;20472;-70
2022/04/28 07:42:01;;;;;;;12.82;5.55;;;;;;;14.21;49.77;102098.16;5026486;28;20518;-71
2022/04/28 07:51:43;;;;;;;17.55;5.88;;;;;;;14.62;49.14;102092.56;5024243;28;20048;-72
2022/04/28 07:54:11;;;;;;;14.90;5.45;;;;;;;14.61;48.74;102097.00;5029289;28;20060;-72
2022/04/28 07:56:38;;;;;;;17.27;4.82;;;;;;;14.58;48.63;102094.50;5007361;28;20068;-71
2022/04/28 07:59:08;;;;;;;15.15;4.50;;;;;;;14.74;48.12;102099.00;5032255;28;20053;-71
2022/04/28 08:06:16;;;;;;;12.10;4.05;;;;;;;15.06;45.77;102100.78;5042196;28;20040;-71
2022/04/28 08:08:43;;;;;;;20.05;5.82;;;;;;;14.75;46.61;102100.72;5046970;28;20054;-72
2022/04/28 08:11:11;;;;;;;11.52;4.90;;;;;;;14.50;47.41;102093.19;5041839;28;20068;-72
2022/04/28 08:13:38;;;;;;;12.18;4.43;;;;;;;14.64;48.06;102096.00;5027777;28;20464;-72
2022/04/28 08:16:05;;;;;;;10.82;4.90;;;;;;;14.62;47.29;102093.41;5048444;28;20049;-72
2022/04/28 08:18:35;;;;;;;19.95;4.65;;;;;;;14.65;48.25;102097.69;5045167;28;20049;-72
2022/04/28 08:21:03;;;;;;;13.57;4.85;;;;;;;14.93;47.69;102097.09;5023753;28;20060;-72
2022/04/28 08:23:30;;;;;;;11.75;5.22;;;;;;;15.00;47.53;102095.81;5045096;28;20053;-72
2022/04/28 08:25:59;;;;;;;15.07;5.40;;;;;;;15.10;47.38;102096.19;4999952;28;20060;-73
2022/04/28 08:28:27;;;;;;;11.35;4.57;;;;;;;15.30;47.53;102095.94;5032089;28;20049;-72
2022/04/28 08:30:54;;;;;;;14.80;5.40;;;;;;;15.36;47.21;102097.41;5009117;28;20056;-72
2022/04/28 08:33:21;;;;;;;8.68;5.30;;;;;;;15.27;46.31;102098.78;5048645;28;20704;-72
2022/04/28 08:35:49;;;;;;;13.45;6.07;;;;;;;15.15;46.12;102097.63;5025498;28;20076;-72
2022/04/28 08:38:17;;;;;;;19.52;6.97;;;;;;;15.16;46.24;102091.38;5028983;28;20053;-72
2022/04/28 08:40:46;;;;;;;16.88;5.90;;;;;;;15.33;46.25;102102.88;5024985;28;20244;-73
2022/04/28 08:43:15;;;;;;;14.70;6.18;;;;;;;15.57;45.77;102092.69;5015598;28;20534;-72
2022/04/28 08:48:48;;;;;;;12.43;5.22;;;;;;;15.97;45.14;102099.25;5044531;28;20076;-72
2022/04/28 08:51:17;;;;;;;13.35;5.72;;;;;;;15.56;44.43;102096.28;5012195;28;20459;-73
2022/04/28 08:53:47;;;;;;;15.23;6.20;;;;;;;15.70;44.73;102094.56;5010980;28;20049;-72
2022/04/28 08:56:16;;;;;;;14.15;5.97;;;;;;;15.61;43.88;102089.75;5011149;28;20483;-72
2022/04/28 08:58:43;;;;;;;11.13;6.47;;;;;;;15.23;44.22;102106.97;5012297;28;20053;-73
2022/04/28 09:01:10;;;;;;;11.27;6.68;;;;;;;14.94;44.68;102096.13;5046716;28;20048;-72
2022/04/28 09:03:38;;;;;;;13.70;6.22;;;;;;;15.30;44.24;102095.94;5011743;28;20065;-72
2022/04/28 09:06:30;;;;;;;12.85;5.55;;;;;;;15.23;44.24;102094.56;5014701;28;20503;-73
2022/04/28 09:09:04;;;;;;;;;;;;;;;15.62;43.87;102086.16;5032518;28;20053;-73
2022/04/28 09:11:35;;;;;;;10.68;5.30;;;;;;;16.13;43.13;102084.13;5010473;28;20142;-74
2022/04/28 09:14:11;;;;;;;13.15;6.13;;;;;;;16.62;42.34;102089.16;5022856;28;20418;-73
2022/04/28 09:16:46;;;;;;;11.30;5.53;;;;;;;16.61;41.83;102087.44;5012438;28;20063;-73
2022/04/28 09:19:24;;;;;;;17.70;6.38;;;;;;;16.44;41.38;102085.81;5018745;28;20336;-73
2022/04/28 09:21:54;;;;;;;15.48;5.60;;;;;;;16.47;42.70;102087.41;5028150;28;20061;-73
2022/04/28 09:24:23;;;;;;;12.93;5.85;;;;;;;16.09;42.07;102095.88;5027644;28;20045;-73
2022/04/28 09:26:53;;;;;;;16.50;5.80;;;;;;;15.48;43.00;102098.50;5011651;28;20061;-72
2022/04/28 09:29:22;;;;;;;12.55;5.00;;;;;;;15.29;43.42;102107.50;5010783;28;20049;-72
2022/04/28 09:32:15;;;;;;;13.20;5.93;;;;;;;15.30;43.25;102101.22;5026144;28;20067;-73
2022/04/28 09:35:08;;;;;;;9.40;5.25;;;;;;;15.79;41.82;102095.00;5011450;28;20651;-73
2022/04/28 09:37:37;;;;;;;18.83;5.78;;;;;;;15.78;41.83;102095.94;5005807;28;20048;-73
2022/04/28 09:42:52;;;;;;;8.50;4.97;;;;;;;16.05;40.71;102096.16;5012088;28;20106;-73
2022/04/28 09:45:22;;;;;;;10.73;5.35;;;;;;;16.40;40.09;102092.25;5010578;28;20059;-72
2022/04/28 09:48:04;;;;;;;12.38;6.28;;;;;;;16.66;40.24;102092.47;5027758;28;20049;-72
2022/04/28 09:50:32;;;;;;;15.75;5.32;;;;;;;16.70;40.10;102086.88;5011561;28;20071;-73
2022/04/28 09:53:04;;;;;;;22.02;5.68;;;;;;;16.72;40.02;102097.47;5017610;28;20037;-73
2022/04/28 09:55:32;;;;;;;19.10;5.93;;;;;;;16.17;40.35;102103.41;5013725;28;20061;-73
2022/04/28 09:57:59;;;;;;;16.30;5.78;;;;;;;16.48;40.27;102099.78;5012328;28;20057;-71
2022/04/28 10:00:26;;;;;;;17.23;6.90;;;;;;;16.59;39.87;102092.00;5031531;28;20057;-72
2022/04/28 10:02:55;;;;;;;14.70;5.95;;;;;;;16.77;39.30;102091.84;5032118;28;20495;-71
2022/04/28 10:05:25;;;;;;;13.40;5.55;;;;;;;16.47;40.00;102095.38;5014868;28;20574;-72
2022/04/28 10:07:53;;;;;;;12.75;5.15;;;;;;;16.48;40.21;102094.47;5000291;28;20060;-73
2022/04/28 10:10:21;;;;;;;14.27;6.07;;;;;;;16.43;39.82;102093.88;5011891;28;20411;-72
2022/04/28 10:12:48;;;;;;;10.55;4.57;;;;;;;16.37;39.79;102095.09;5030532;28;20135;-72
2022/04/28 10:15:17;;;;;;;9.82;5.55;;;;;;;16.69;39.50;102102.91;5011913;28;20044;-71
2022/04/28 10:17:47;;;;;;;14.70;5.03;;;;;;;16.48;39.39;102089.16;5032058;28;20071;-72
2022/04/28 10:20:19;;;;;;;13.05;5.10;;;;;;;16.81;39.49;102088.06;5034752;28;20049;-71
2022/04/28 10:23:08;;;;;;;12.18;5.15;;;;;;;17.33;38.37;102090.09;5013698;28;20212;-72
2022/04/28 10:34:16;;;;;;;9.30;5.07;;;;;;;17.68;36.17;102087.81;5046817;28;20118;-72
2022/04/28 10:36:53;;;;;;;14.05;5.20;;;;;;;17.34;36.72;102095.31;5026909;28;20645;-71
2022/04/28 10:39:42;;;;;;;14.27;5.20;;;;;;;17.61;36.92;102091.84;5021375;28;20132;-72
2022/04/28 10:42:20;;;;;;;12.77;5.03;;;;;;;17.57;36.71;102099.16;5026224;28;20429;-72
2022/04/28 10:44:56;;;;;;;13.60;5.93;;;;;;;16.86;38.27;102101.94;5029728;28;20216;-72
2022/04/28 10:47:38;;;;;;;13.82;5.50;;;;;;;16.33;39.26;102100.69;5014474;28;20052;-72
2022/04/28 10:50:25;;;;;;;13.57;4.65;;;;;;;16.36;39.43;102104.03;5009227;28;20072;-71
2022/04/28 10:53:00;;;;;;;13.43;5.25;;;;;;;17.01;38.26;102100.09;5042100;28;20391;-71
2022/04/28 10:55:33;;;;;;;12.40;4.53;;;;;;;17.38;37.20;102093.28;5014199;28;20148;-72
2022/04/28 10:58:24;;;;;;;10.10;4.18;;;;;;;17.62;36.89;102094.38;5032639;28;20041;-72
2022/04/28 11:00:56;;;;;;;10.07;4.50;;;;;;;18.51;36.06;102101.78;4990270;28;20077;-71
2022/04/28 11:03:49;;;;;;;9.70;4.18;;;;;;;19.11;34.26;102089.59;5021312;28;20048;-72
2022/04/28 11:06:46;;;;;;;6.97;3.75;;;;;;;19.53;33.29;102096.31;5030875;28;20127;-71
2022/04/28 11:09:13;;;;;;;7.20;4.20;;;;;;;18.52;33.83;102099.97;5027725;28;20048;-71
2022/04/28 11:11:42;;;;;;;10.98;4.63;;;;;;;18.43;33.35;102099.66;5013174;28;20521;-71
2022/04/28 11:14:09;;;;;;;8.65;4.28;;;;;;;18.44;33.67;102103.16;5008623;28;20052;-72
2022/04/28 11:16:39;;;;;;;12.75;4.35;;;;;;;18.39;34.37;102087.47;5014695;28;20534;-71
2022/04/28 11:19:08;;;;;;;11.02;4.40;;;;;;;18.51;33.77;102091.13;5033527;28;20580;-71
2022/04/28 11:21:38;;;;;;;10.27;3.92;;;;;;;17.85;34.16;102089.41;5045697;28;20506;-71
2022/04/28 11:24:06;;;;;;;12.73;4.35;;;;;;;17.41;34.83;102088.63;5012978;28;20511;-71
2022/04/28 11:26:35;;;;;;;8.88;3.35;;;;;;;17.45;34.89;102083.97;5026139;28;20068;-71
2022/04/28 11:29:07;;;;;;;12.95;3.45;;;;;;;18.10;34.21;102088.59;5012851;28;20053;-71
2022/04/28 11:31:36;;;;;;;8.45;3.80;;;;;;;18.09;34.97;102093.06;5009953;28;20451;-71
2022/04/28 11:34:05;;;;;;;10.63;3.80;;;;;;;18.59;34.12;102086.09;5014328;28;20040;-71
2022/04/28 11:36:32;;;;;;;11.43;3.90;;;;;;;19.31;33.46;102082.81;5013525;28;20037;-71
2022/04/28 11:39:02;;;;;;;9.50;4.07;;;;;;;19.72;32.53;102093.16;5015943;28;20072;-72
2022/04/28 11:41:39;;;;;;;11.25;4.78;;;;;;;18.86;33.14;102086.00;5013569;28;20041;-72
2022/04/28 11:44:16;;;;;;;10.35;3.92;;;;;;;19.45;32.95;102085.31;5013458;28;20132;-73
2022/04/28 11:46:44;;;;;;;11.57;4.30;;;;;;;19.49;32.60;102074.31;5016614;28;20049;-74
2022/04/28 11:49:11;;;;;;;10.75;3.75;;;;;;;19.49;32.79;102084.13;5031022;28;20088;-72
2022/04/28 11:51:38;;;;;;;11.13;3.95;;;;;;;19.64;32.75;102080.38;5053428;28;20402;-72
2022/04/28 11:54:27;;;;;;;6.90;3.58;;;;;;;19.17;32.27;102078.47;5029638;28;20041;-73
2022/04/28 11:57:07;;;;;;;6.47;3.28;;;;;;;19.61;31.84;102072.59;5012699;28;20175;-72
2022/04/28 11:59:37;;;;;;;10.05;2.80;;;;;;;20.07;30.44;102068.28;5029828;28;20056;-73
2022/04/28 12:02:05;;;;;;;8.98;2.63;;;;;;;21.01;30.84;102065.38;5013437;28;20049;-72
2022/04/28 12:04:40;;;;;;;8.55;2.72;;;;;;;21.96;29.93;102062.94;5012538;28;20057;-72
2022/04/28 12:07:18;;;;;;;8.77;3.25;;;;;;;20.43;28.74;102061.91;5014437;28;20059;-72
2022/04/28 12:15:16;;;;;;;13.80;3.80;;;;;;;20.53;30.21;102062.94;5027026;28;19936;-73
2022/04/28 12:21:44;;;;;;;9.73;3.28;;;;;;;20.56;29.87;102064.53;5039151;28;20045;-73
2022/04/28 12:24:16;;;;;;;13.40;3.85;;;;;;;20.72;29.68;102054.31;5028458;28;20576;-72
2022/04/28 12:26:45;;;;;;;10.02;3.83;;;;;;;20.88;29.05;102059.28;5034019;28;20060;-74